sensor_id;sensor_type;location;lat;lon;timestamp;pressure;altitude;pressure_sealevel;temperature;humidity
71889;BME280;59762;49.998;14.858;2023-06-10T00:01:52;97180.94;;;14.95;100.00
71889;BME280;59762;49.998;14.858;2023-06-10T00:04:21;97188.09;;;14.88;100.00
71889;BME280;59762;49.998;14.858;2023-06-10T00:06:47;97184.31;;;14.83;100.00
71889;BME280;59762;49.998;14.858;2023-06-10T00:09:15;97182.34;;;14.92;100.00
71889;BME280;59762;49.998;14.858;2023-06-10T00:11:41;97180.59;;;14.84;100.00
71889;BME280;59762;49.998;14.858;2023-06-10T00:14:07;97191.34;;;14.84;100.00
71889;BME280;59762;49.998;14.858;2023-06-10T00:16:34;97187.66;;;14.85;100.00
71889;BME280;59762;49.998;14.858;2023-06-10T00:19:00;97189.69;;;14.83;100.00
71889;BME280;59762;49.998;14.858;2023-06-10T00:21:27;97183.09;;;14.85;100.00
71889;BME280;59762;49.998;14.858;2023-06-10T00:23:54;97185.31;;;14.97;100.00
71889;BME280;59762;49.998;14.858;2023-06-10T00:26:23;97184.84;;;14.93;100.00
71889;BME280;59762;49.998;14.858;2023-06-10T00:28:49;97188.09;;;14.88;100.00
71889;BME280;59762;49.998;14.858;2023-06-10T00:31:15;97185.34;;;14.82;100.00
71889;BME280;59762;49.998;14.858;2023-06-10T00:33:41;97187.38;;;14.80;100.00
71889;BME280;59762;49.998;14.858;2023-06-10T00:36:07;97177.56;;;14.72;100.00
71889;BME280;59762;49.998;14.858;2023-06-10T00:38:33;97180.19;;;14.66;100.00
71889;BME280;59762;49.998;14.858;2023-06-10T00:40:58;97183.25;;;14.63;100.00
71889;BME280;59762;49.998;14.858;2023-06-10T00:43:25;97186.78;;;14.63;100.00
71889;BME280;59762;49.998;14.858;2023-06-10T00:45:51;97190.03;;;14.59;100.00
71889;BME280;59762;49.998;14.858;2023-06-10T00:48:17;97192.34;;;14.47;100.00
71889;BME280;59762;49.998;14.858;2023-06-10T00:50:45;97192.09;;;14.42;100.00
71889;BME280;59762;49.998;14.858;2023-06-10T00:53:12;97195.44;;;14.44;100.00
71889;BME280;59762;49.998;14.858;2023-06-10T00:55:38;97190.06;;;14.44;100.00
71889;BME280;59762;49.998;14.858;2023-06-10T00:58:05;97195.72;;;14.35;100.00
71889;BME280;59762;49.998;14.858;2023-06-10T01:00:31;97196.47;;;14.29;100.00
71889;BME280;59762;49.998;14.858;2023-06-10T01:02:57;97199.53;;;14.26;100.00
71889;BME280;59762;49.998;14.858;2023-06-10T01:05:23;97193.22;;;14.33;100.00
71889;BME280;59762;49.998;14.858;2023-06-10T01:08:01;97190.09;;;14.30;100.00
71889;BME280;59762;49.998;14.858;2023-06-10T01:10:43;97196.66;;;14.27;100.00
71889;BME280;59762;49.998;14.858;2023-06-10T01:13:13;97195.53;;;14.22;100.00
71889;BME280;59762;49.998;14.858;2023-06-10T01:15:39;97203.13;;;14.18;100.00
71889;BME280;59762;49.998;14.858;2023-06-10T01:18:07;97193.03;;;14.20;100.00
71889;BME280;59762;49.998;14.858;2023-06-10T01:20:41;97190.44;;;14.27;100.00
71889;BME280;59762;49.998;14.858;2023-06-10T01:23:12;97189.72;;;14.33;100.00
71889;BME280;59762;49.998;14.858;2023-06-10T01:25:41;97198.78;;;14.32;100.00
71889;BME280;59762;49.998;14.858;2023-06-10T01:33:43;97201.34;;;14.40;100.00
71889;BME280;59762;49.998;14.858;2023-06-10T01:36:09;97200.06;;;14.36;100.00
71889;BME280;59762;49.998;14.858;2023-06-10T01:38:40;97202.03;;;14.27;100.00
71889;BME280;59762;49.998;14.858;2023-06-10T01:41:08;97199.97;;;14.29;100.00
71889;BME280;59762;49.998;14.858;2023-06-10T01:43:37;97204.81;;;14.34;100.00
71889;BME280;59762;49.998;14.858;2023-06-10T01:46:02;97204.63;;;14.35;100.00
71889;BME280;59762;49.998;14.858;2023-06-10T01:48:28;97206.00;;;14.31;100.00
71889;BME280;59762;49.998;14.858;2023-06-10T01:50:54;97218.06;;;14.21;100.00
71889;BME280;59762;49.998;14.858;2023-06-10T01:53:22;97221.56;;;14.21;100.00
71889;BME280;59762;49.998;14.858;2023-06-10T01:55:48;97218.50;;;14.24;100.00
71889;BME280;59762;49.998;14.858;2023-06-10T01:58:13;97221.00;;;14.26;100.00
71889;BME280;59762;49.998;14.858;2023-06-10T02:00:39;97219.44;;;14.31;100.00
71889;BME280;59762;49.998;14.858;2023-06-10T02:03:05;97218.69;;;14.23;100.00
71889;BME280;59762;49.998;14.858;2023-06-10T02:05:31;97214.84;;;14.17;100.00
71889;BME280;59762;49.998;14.858;2023-06-10T02:07:57;97211.72;;;14.14;100.00
71889;BME280;59762;49.998;14.858;2023-06-10T02:10:23;97221.63;;;14.13;100.00
71889;BME280;59762;49.998;14.858;2023-06-10T02:12:49;97228.50;;;14.16;100.00
71889;BME280;59762;49.998;14.858;2023-06-10T02:15:14;97223.25;;;14.22;100.00
71889;BME280;59762;49.998;14.858;2023-06-10T02:17:40;97237.75;;;14.13;100.00
71889;BME280;59762;49.998;14.858;2023-06-10T02:20:06;97233.94;;;14.08;100.00
71889;BME280;59762;49.998;14.858;2023-06-10T02:22:33;97231.53;;;13.98;100.00
71889;BME280;59762;49.998;14.858;2023-06-10T02:25:00;97231.34;;;14.00;100.00
71889;BME280;59762;49.998;14.858;2023-06-10T02:27:25;97230.41;;;14.07;100.00
71889;BME280;59762;49.998;14.858;2023-06-10T02:29:51;97230.31;;;14.01;100.00
71889;BME280;59762;49.998;14.858;2023-06-10T02:32:17;97225.63;;;14.03;100.00
71889;BME280;59762;49.998;14.858;2023-06-10T02:34:42;97232.66;;;14.04;100.00
71889;BME280;59762;49.998;14.858;2023-06-10T02:37:09;97245.59;;;14.00;100.00
71889;BME280;59762;49.998;14.858;2023-06-10T02:39:35;97242.81;;;13.94;100.00
71889;BME280;59762;49.998;14.858;2023-06-10T02:42:00;97240.38;;;13.84;100.00
71889;BME280;59762;49.998;14.858;2023-06-10T02:44:26;97240.84;;;13.88;100.00
71889;BME280;59762;49.998;14.858;2023-06-10T02:46:52;97236.50;;;13.87;100.00
71889;BME280;59762;49.998;14.858;2023-06-10T02:49:17;97236.69;;;13.85;100.00
71889;BME280;59762;49.998;14.858;2023-06-10T02:51:44;97231.25;;;13.93;100.00
71889;BME280;59762;49.998;14.858;2023-06-10T02:54:09;97233.84;;;14.01;100.00
71889;BME280;59762;49.998;14.858;2023-06-10T02:56:35;97232.72;;;13.96;100.00
71889;BME280;59762;49.998;14.858;2023-06-10T02:59:01;97242.63;;;13.95;100.00
71889;BME280;59762;49.998;14.858;2023-06-10T03:01:28;97238.25;;;13.94;100.00
71889;BME280;59762;49.998;14.858;2023-06-10T03:03:53;97243.19;;;13.91;100.00
71889;BME280;59762;49.998;14.858;2023-06-10T03:06:21;97246.88;;;13.90;100.00
71889;BME280;59762;49.998;14.858;2023-06-10T03:08:49;97248.91;;;13.88;100.00
71889;BME280;59762;49.998;14.858;2023-06-10T03:11:15;97249.25;;;13.85;100.00
71889;BME280;59762;49.998;14.858;2023-06-10T03:13:41;97245.75;;;13.84;100.00
71889;BME280;59762;49.998;14.858;2023-06-10T03:16:06;97243.19;;;13.91;100.00
71889;BME280;59762;49.998;14.858;2023-06-10T03:18:33;97240.50;;;13.91;100.00
71889;BME280;59762;49.998;14.858;2023-06-10T03:20:58;97247.00;;;13.96;100.00
71889;BME280;59762;49.998;14.858;2023-06-10T03:23:24;97245.88;;;14.05;100.00
71889;BME280;59762;49.998;14.858;2023-06-10T03:25:50;97240.44;;;14.13;100.00
71889;BME280;59762;49.998;14.858;2023-06-10T03:28:16;97246.75;;;14.20;100.00
71889;BME280;59762;49.998;14.858;2023-06-10T03:30:41;97247.50;;;14.29;100.00
71889;BME280;59762;49.998;14.858;2023-06-10T03:33:07;97257.03;;;14.31;100.00
71889;BME280;59762;49.998;14.858;2023-06-10T03:35:32;97258.25;;;14.29;100.00
71889;BME280;59762;49.998;14.858;2023-06-10T03:38:00;97250.28;;;14.35;100.00
71889;BME280;59762;49.998;14.858;2023-06-10T03:40:26;97249.53;;;14.41;100.00
71889;BME280;59762;49.998;14.858;2023-06-10T03:42:51;97243.63;;;14.46;100.00
71889;BME280;59762;49.998;14.858;2023-06-10T03:45:17;97250.47;;;14.48;100.00
71889;BME280;59762;49.998;14.858;2023-06-10T03:47:43;97259.25;;;14.57;100.00
71889;BME280;59762;49.998;14.858;2023-06-10T03:50:09;97264.88;;;14.62;100.00
71889;BME280;59762;49.998;14.858;2023-06-10T03:52:35;97254.69;;;14.72;100.00
71889;BME280;59762;49.998;14.858;2023-06-10T03:55:02;97258.03;;;14.74;100.00
71889;BME280;59762;49.998;14.858;2023-06-10T03:57:28;97258.38;;;14.85;100.00
71889;BME280;59762;49.998;14.858;2023-06-10T03:59:54;97265.03;;;14.89;100.00
71889;BME280;59762;49.998;14.858;2023-06-10T04:02:20;97270.75;;;15.01;100.00
71889;BME280;59762;49.998;14.858;2023-06-10T04:04:46;97263.72;;;15.00;100.00
71889;BME280;59762;49.998;14.858;2023-06-10T04:07:12;97269.47;;;14.97;100.00
71889;BME280;59762;49.998;14.858;2023-06-10T04:09:39;97269.53;;;15.03;100.00
71889;BME280;59762;49.998;14.858;2023-06-10T04:12:05;97267.59;;;15.12;100.00
71889;BME280;59762;49.998;14.858;2023-06-10T04:14:35;97262.47;;;15.17;100.00
71889;BME280;59762;49.998;14.858;2023-06-10T04:17:05;97270.03;;;15.28;100.00
71889;BME280;59762;49.998;14.858;2023-06-10T04:19:33;97267.63;;;15.33;100.00
71889;BME280;59762;49.998;14.858;2023-06-10T04:22:01;97273.78;;;15.48;100.00
71889;BME280;59762;49.998;14.858;2023-06-10T04:24:27;97268.94;;;15.37;100.00
71889;BME280;59762;49.998;14.858;2023-06-10T04:26:53;97268.47;;;15.55;100.00
71889;BME280;59762;49.998;14.858;2023-06-10T04:29:19;97278.13;;;15.70;99.74
71889;BME280;59762;49.998;14.858;2023-06-10T04:31:44;97273.00;;;15.75;98.97
71889;BME280;59762;49.998;14.858;2023-06-10T04:34:12;97271.03;;;15.84;99.03
71889;BME280;59762;49.998;14.858;2023-06-10T04:36:38;97270.63;;;15.87;99.12
71889;BME280;59762;49.998;14.858;2023-06-10T04:39:03;97273.81;;;15.97;98.63
71889;BME280;59762;49.998;14.858;2023-06-10T04:41:31;97279.03;;;15.98;98.69
71889;BME280;59762;49.998;14.858;2023-06-10T04:43:57;97282.53;;;15.99;99.73
71889;BME280;59762;49.998;14.858;2023-06-10T04:46:23;97275.78;;;16.09;100.00
71889;BME280;59762;49.998;14.858;2023-06-10T04:48:49;97277.38;;;16.31;96.40
71889;BME280;59762;49.998;14.858;2023-06-10T04:51:15;97274.53;;;16.39;95.77
71889;BME280;59762;49.998;14.858;2023-06-10T04:53:42;97270.88;;;16.47;95.74
71889;BME280;59762;49.998;14.858;2023-06-10T04:56:08;97273.44;;;16.55;94.47
71889;BME280;59762;49.998;14.858;2023-06-10T04:58:33;97279.94;;;16.67;96.06
71889;BME280;59762;49.998;14.858;2023-06-10T05:00:59;97276.03;;;16.76;94.25
71889;BME280;59762;49.998;14.858;2023-06-10T05:03:26;97268.84;;;16.89;93.53
71889;BME280;59762;49.998;14.858;2023-06-10T05:05:52;97275.34;;;17.08;95.34
71889;BME280;59762;49.998;14.858;2023-06-10T05:08:17;97286.50;;;17.58;90.31
71889;BME280;59762;49.998;14.858;2023-06-10T05:10:43;97283.50;;;17.27;92.62
71889;BME280;59762;49.998;14.858;2023-06-10T05:13:09;97277.63;;;17.71;88.97
71889;BME280;59762;49.998;14.858;2023-06-10T05:15:35;97286.34;;;18.18;88.50
71889;BME280;59762;49.998;14.858;2023-06-10T05:18:00;97282.69;;;19.02;85.17
71889;BME280;59762;49.998;14.858;2023-06-10T05:20:28;97289.75;;;20.65;79.43
71889;BME280;59762;49.998;14.858;2023-06-10T05:22:54;97292.19;;;19.93;77.25
71889;BME280;59762;49.998;14.858;2023-06-10T05:25:20;97287.44;;;19.57;80.67
71889;BME280;59762;49.998;14.858;2023-06-10T05:27:46;97283.66;;;18.44;84.66
71889;BME280;59762;49.998;14.858;2023-06-10T05:30:12;97287.81;;;18.47;84.00
71889;BME280;59762;49.998;14.858;2023-06-10T05:32:38;97290.31;;;18.42;85.04
71889;BME280;59762;49.998;14.858;2023-06-10T05:35:04;97293.09;;;18.92;83.15
71889;BME280;59762;49.998;14.858;2023-06-10T05:37:30;97290.03;;;18.76;83.63
71889;BME280;59762;49.998;14.858;2023-06-10T05:39:55;97298.50;;;18.99;82.40
71889;BME280;59762;49.998;14.858;2023-06-10T05:42:21;97298.06;;;20.45;77.54
71889;BME280;59762;49.998;14.858;2023-06-10T05:44:47;97286.16;;;19.60;79.59
71889;BME280;59762;49.998;14.858;2023-06-10T05:47:12;97296.28;;;19.40;81.76
71889;BME280;59762;49.998;14.858;2023-06-10T05:49:38;97296.88;;;18.91;85.61
71889;BME280;59762;49.998;14.858;2023-06-10T05:52:04;97297.38;;;18.43;85.46
71889;BME280;59762;49.998;14.858;2023-06-10T05:54:30;97294.06;;;18.41;86.44
71889;BME280;59762;49.998;14.858;2023-06-10T05:56:55;97300.72;;;18.38;87.41
71889;BME280;59762;49.998;14.858;2023-06-10T05:59:21;97299.59;;;18.78;85.98
71889;BME280;59762;49.998;14.858;2023-06-10T06:01:48;97301.25;;;18.86;83.76
71889;BME280;59762;49.998;14.858;2023-06-10T06:04:16;97303.50;;;18.95;82.76
71889;BME280;59762;49.998;14.858;2023-06-10T06:06:42;97303.13;;;18.85;83.93
71889;BME280;59762;49.998;14.858;2023-06-10T06:09:07;97299.19;;;18.81;84.56
71889;BME280;59762;49.998;14.858;2023-06-10T06:11:34;97305.16;;;18.96;83.72
71889;BME280;59762;49.998;14.858;2023-06-10T06:14:00;97302.09;;;18.86;85.35
71889;BME280;59762;49.998;14.858;2023-06-10T06:16:26;97302.16;;;18.54;86.54
71889;BME280;59762;49.998;14.858;2023-06-10T06:18:51;97304.84;;;18.28;86.25
71889;BME280;59762;49.998;14.858;2023-06-10T06:21:17;97309.84;;;18.31;88.01
71889;BME280;59762;49.998;14.858;2023-06-10T06:23:43;97310.91;;;18.43;86.65
71889;BME280;59762;49.998;14.858;2023-06-10T06:26:08;97310.69;;;18.44;85.75
71889;BME280;59762;49.998;14.858;2023-06-10T06:28:34;97311.13;;;18.41;84.93
71889;BME280;59762;49.998;14.858;2023-06-10T06:30:59;97313.84;;;18.35;86.12
71889;BME280;59762;49.998;14.858;2023-06-10T06:33:25;97312.56;;;18.18;88.11
71889;BME280;59762;49.998;14.858;2023-06-10T06:35:51;97314.41;;;18.24;87.44
71889;BME280;59762;49.998;14.858;2023-06-10T06:38:17;97323.97;;;18.20;90.66
71889;BME280;59762;49.998;14.858;2023-06-10T06:40:43;97321.28;;;18.13;88.82
71889;BME280;59762;49.998;14.858;2023-06-10T06:43:09;97321.28;;;18.07;90.65
71889;BME280;59762;49.998;14.858;2023-06-10T06:45:34;97321.47;;;18.31;88.85
71889;BME280;59762;49.998;14.858;2023-06-10T06:48:00;97328.38;;;18.40;86.59
71889;BME280;59762;49.998;14.858;2023-06-10T06:50:26;97331.72;;;18.36;84.98
71889;BME280;59762;49.998;14.858;2023-06-10T06:52:51;97335.00;;;18.31;85.62
71889;BME280;59762;49.998;14.858;2023-06-10T06:55:17;97343.75;;;18.14;86.57
71889;BME280;59762;49.998;14.858;2023-06-10T06:57:43;97330.88;;;18.35;86.34
71889;BME280;59762;49.998;14.858;2023-06-10T07:00:09;97343.56;;;18.54;86.24
71889;BME280;59762;49.998;14.858;2023-06-10T07:02:35;97341.88;;;18.47;86.41
71889;BME280;59762;49.998;14.858;2023-06-10T07:05:01;97346.69;;;18.38;90.17
71889;BME280;59762;49.998;14.858;2023-06-10T07:07:27;97346.44;;;18.27;89.25
71889;BME280;59762;49.998;14.858;2023-06-10T07:09:52;97345.59;;;18.20;87.19
71889;BME280;59762;49.998;14.858;2023-06-10T07:12:18;97357.00;;;17.89;88.23
71889;BME280;59762;49.998;14.858;2023-06-10T07:14:44;97362.19;;;17.97;88.65
71889;BME280;59762;49.998;14.858;2023-06-10T07:17:10;97364.28;;;17.95;88.92
71889;BME280;59762;49.998;14.858;2023-06-10T07:19:35;97362.81;;;17.80;90.85
71889;BME280;59762;49.998;14.858;2023-06-10T07:22:01;97362.44;;;17.96;90.52
71889;BME280;59762;49.998;14.858;2023-06-10T07:24:27;97363.66;;;17.80;90.11
71889;BME280;59762;49.998;14.858;2023-06-10T07:26:52;97355.75;;;17.85;90.15
71889;BME280;59762;49.998;14.858;2023-06-10T07:29:18;97366.09;;;17.75;90.33
71889;BME280;59762;49.998;14.858;2023-06-10T07:31:44;97367.78;;;17.76;91.90
71889;BME280;59762;49.998;14.858;2023-06-10T07:34:09;97358.78;;;17.56;90.34
71889;BME280;59762;49.998;14.858;2023-06-10T07:36:35;97356.34;;;17.74;91.07
71889;BME280;59762;49.998;14.858;2023-06-10T07:39:02;97366.75;;;17.77;91.17
71889;BME280;59762;49.998;14.858;2023-06-10T07:41:28;97367.16;;;17.74;90.64
71889;BME280;59762;49.998;14.858;2023-06-10T07:43:53;97373.41;;;17.88;91.74
71889;BME280;59762;49.998;14.858;2023-06-10T07:46:23;97365.72;;;17.91;92.52
71889;BME280;59762;49.998;14.858;2023-06-10T07:48:49;97368.03;;;17.88;91.70
71889;BME280;59762;49.998;14.858;2023-06-10T07:51:16;97369.47;;;17.84;94.78
71889;BME280;59762;49.998;14.858;2023-06-10T07:53:41;97371.50;;;17.75;91.68
71889;BME280;59762;49.998;14.858;2023-06-10T07:56:07;97369.44;;;17.71;94.51
71889;BME280;59762;49.998;14.858;2023-06-10T07:58:33;97373.13;;;17.50;94.05
71889;BME280;59762;49.998;14.858;2023-06-10T08:00:59;97372.25;;;17.50;94.77
71889;BME280;59762;49.998;14.858;2023-06-10T08:03:24;97376.00;;;17.49;95.82
71889;BME280;59762;49.998;14.858;2023-06-10T08:05:50;97385.66;;;17.30;95.22
71889;BME280;59762;49.998;14.858;2023-06-10T08:08:16;97387.63;;;17.49;95.44
71889;BME280;59762;49.998;14.858;2023-06-10T08:10:41;97388.13;;;17.25;97.47
71889;BME280;59762;49.998;14.858;2023-06-10T08:13:08;97394.22;;;17.40;97.29
71889;BME280;59762;49.998;14.858;2023-06-10T08:15:34;97390.63;;;17.67;94.25
71889;BME280;59762;49.998;14.858;2023-06-10T08:18:00;97384.56;;;17.59;93.30
71889;BME280;59762;49.998;14.858;2023-06-10T08:20:25;97389.84;;;17.93;93.28
71889;BME280;59762;49.998;14.858;2023-06-10T08:22:51;97387.16;;;18.06;92.66
71889;BME280;59762;49.998;14.858;2023-06-10T08:25:17;97384.28;;;18.20;92.74
71889;BME280;59762;49.998;14.858;2023-06-10T08:27:43;97390.75;;;18.45;88.96
71889;BME280;59762;49.998;14.858;2023-06-10T08:30:08;97395.13;;;18.33;89.83
71889;BME280;59762;49.998;14.858;2023-06-10T08:32:36;97387.63;;;18.61;90.97
71889;BME280;59762;49.998;14.858;2023-06-10T08:35:02;97397.84;;;18.53;91.70
71889;BME280;59762;49.998;14.858;2023-06-10T08:37:28;97398.88;;;18.58;90.49
71889;BME280;59762;49.998;14.858;2023-06-10T08:39:54;97396.59;;;18.42;93.90
71889;BME280;59762;49.998;14.858;2023-06-10T08:42:33;97398.88;;;18.45;92.13
71889;BME280;59762;49.998;14.858;2023-06-10T08:45:01;97403.25;;;18.79;91.60
71889;BME280;59762;49.998;14.858;2023-06-10T08:47:29;97396.72;;;19.25;90.38
71889;BME280;59762;49.998;14.858;2023-06-10T08:50:03;97406.34;;;18.95;88.60
71889;BME280;59762;49.998;14.858;2023-06-10T08:52:35;97400.72;;;18.97;88.99
71889;BME280;59762;49.998;14.858;2023-06-10T08:55:05;97399.28;;;18.68;90.36
71889;BME280;59762;49.998;14.858;2023-06-10T08:57:33;97400.91;;;18.30;90.87
71889;BME280;59762;49.998;14.858;2023-06-10T09:00:01;97401.38;;;18.40;91.34
71889;BME280;59762;49.998;14.858;2023-06-10T09:02:28;97406.50;;;18.22;91.55
71889;BME280;59762;49.998;14.858;2023-06-10T09:04:56;97406.91;;;18.13;89.55
71889;BME280;59762;49.998;14.858;2023-06-10T09:07:22;97403.03;;;18.35;91.43
71889;BME280;59762;49.998;14.858;2023-06-10T09:09:49;97408.16;;;18.23;91.95
71889;BME280;59762;49.998;14.858;2023-06-10T09:12:15;97402.41;;;18.46;92.23
71889;BME280;59762;49.998;14.858;2023-06-10T09:14:44;97402.16;;;18.21;91.68
71889;BME280;59762;49.998;14.858;2023-06-10T09:17:10;97407.81;;;18.46;93.22
71889;BME280;59762;49.998;14.858;2023-06-10T09:19:38;97407.41;;;18.62;90.63
71889;BME280;59762;49.998;14.858;2023-06-10T09:22:05;97405.75;;;18.80;90.21
71889;BME280;59762;49.998;14.858;2023-06-10T09:24:31;97401.09;;;19.13;88.59
71889;BME280;59762;49.998;14.858;2023-06-10T09:27:07;97396.06;;;19.17;89.70
71889;BME280;59762;49.998;14.858;2023-06-10T09:29:56;97398.50;;;19.51;87.85
71889;BME280;59762;49.998;14.858;2023-06-10T09:32:26;97400.75;;;19.60;88.22
71889;BME280;59762;49.998;14.858;2023-06-10T09:34:52;97405.94;;;19.68;86.93
71889;BME280;59762;49.998;14.858;2023-06-10T09:37:21;97403.84;;;19.70;84.73
71889;BME280;59762;49.998;14.858;2023-06-10T09:40:07;97410.09;;;19.71;83.68
71889;BME280;59762;49.998;14.858;2023-06-10T09:42:35;97416.09;;;19.79;83.08
71889;BME280;59762;49.998;14.858;2023-06-10T09:45:05;97418.91;;;20.04;81.30
71889;BME280;59762;49.998;14.858;2023-06-10T09:47:31;97417.03;;;20.35;84.99
71889;BME280;59762;49.998;14.858;2023-06-10T09:49:56;97417.75;;;20.55;82.82
71889;BME280;59762;49.998;14.858;2023-06-10T09:52:23;97416.94;;;20.73;83.62
71889;BME280;59762;49.998;14.858;2023-06-10T09:54:53;97417.91;;;20.60;78.78
71889;BME280;59762;49.998;14.858;2023-06-10T09:57:21;97418.16;;;20.52;84.18
71889;BME280;59762;49.998;14.858;2023-06-10T09:59:47;97414.88;;;20.99;81.76
71889;BME280;59762;49.998;14.858;2023-06-10T10:02:16;97416.28;;;21.45;80.94
71889;BME280;59762;49.998;14.858;2023-06-10T10:04:43;97411.25;;;21.30;80.63
71889;BME280;59762;49.998;14.858;2023-06-10T10:07:10;97405.03;;;21.05;80.45
71889;BME280;59762;49.998;14.858;2023-06-10T10:09:37;97409.75;;;21.09;75.03
71889;BME280;59762;49.998;14.858;2023-06-10T10:12:09;97411.13;;;21.18;79.29
71889;BME280;59762;49.998;14.858;2023-06-10T10:14:37;97401.09;;;20.76;80.33
71889;BME280;59762;49.998;14.858;2023-06-10T10:17:09;97404.75;;;20.82;76.66
71889;BME280;59762;49.998;14.858;2023-06-10T10:19:41;97407.06;;;20.60;81.81
71889;BME280;59762;49.998;14.858;2023-06-10T10:22:18;97404.91;;;20.38;78.59
71889;BME280;59762;49.998;14.858;2023-06-10T10:24:49;97396.41;;;20.34;78.51
71889;BME280;59762;49.998;14.858;2023-06-10T10:27:51;97398.53;;;20.32;79.04
71889;BME280;59762;49.998;14.858;2023-06-10T10:30:20;97397.53;;;20.76;78.00
71889;BME280;59762;49.998;14.858;2023-06-10T10:32:58;97402.63;;;20.41;76.66
71889;BME280;59762;49.998;14.858;2023-06-10T10:35:25;97397.41;;;21.32;76.14
71889;BME280;59762;49.998;14.858;2023-06-10T10:37:53;97387.75;;;21.17;75.97
71889;BME280;59762;49.998;14.858;2023-06-10T10:40:20;97392.81;;;21.32;75.87
71889;BME280;59762;49.998;14.858;2023-06-10T10:42:48;97389.59;;;20.99;75.47
71889;BME280;59762;49.998;14.858;2023-06-10T10:45:14;97384.06;;;21.66;75.27
71889;BME280;59762;49.998;14.858;2023-06-10T10:47:41;97381.31;;;22.14;70.24
71889;BME280;59762;49.998;14.858;2023-06-10T10:50:20;97376.41;;;22.22;75.04
71889;BME280;59762;49.998;14.858;2023-06-10T10:52:51;97371.13;;;21.80;71.39
71889;BME280;59762;49.998;14.858;2023-06-10T10:55:18;97361.66;;;22.00;71.07
71889;BME280;59762;49.998;14.858;2023-06-10T10:57:43;97362.34;;;21.96;73.24
71889;BME280;59762;49.998;14.858;2023-06-10T11:00:10;97366.75;;;22.38;69.58
71889;BME280;59762;49.998;14.858;2023-06-10T11:02:43;97368.56;;;22.55;69.07
71889;BME280;59762;49.998;14.858;2023-06-10T11:05:14;97358.28;;;22.46;69.70
71889;BME280;59762;49.998;14.858;2023-06-10T11:07:40;97362.34;;;22.78;71.54
71889;BME280;59762;49.998;14.858;2023-06-10T11:10:13;97354.66;;;22.22;70.96
71889;BME280;59762;49.998;14.858;2023-06-10T11:15:07;97365.94;;;20.39;76.79
71889;BME280;59762;49.998;14.858;2023-06-10T11:17:33;97361.34;;;20.02;80.72
71889;BME280;59762;49.998;14.858;2023-06-10T11:19:59;97359.47;;;19.71;82.08
71889;BME280;59762;49.998;14.858;2023-06-10T11:22:25;97362.78;;;19.73;81.54
71889;BME280;59762;49.998;14.858;2023-06-10T11:24:51;97359.28;;;19.60;82.86
71889;BME280;59762;49.998;14.858;2023-06-10T11:27:23;97356.13;;;19.69;83.45
71889;BME280;59762;49.998;14.858;2023-06-10T11:32:29;97359.84;;;19.75;83.18
71889;BME280;59762;49.998;14.858;2023-06-10T11:34:57;97361.19;;;19.59;83.86
71889;BME280;59762;49.998;14.858;2023-06-10T11:37:23;97359.84;;;19.75;84.04
71889;BME280;59762;49.998;14.858;2023-06-10T11:39:53;97356.50;;;20.17;83.24
71889;BME280;59762;49.998;14.858;2023-06-10T11:42:19;97353.44;;;20.80;81.17
71889;BME280;59762;49.998;14.858;2023-06-10T11:44:50;97358.88;;;20.80;79.83
71889;BME280;59762;49.998;14.858;2023-06-10T11:47:16;97349.00;;;21.29;77.43
71889;BME280;59762;49.998;14.858;2023-06-10T11:49:42;97354.50;;;21.04;78.58
71889;BME280;59762;49.998;14.858;2023-06-10T11:52:08;97348.28;;;20.97;79.58
71889;BME280;59762;49.998;14.858;2023-06-10T11:54:34;97343.16;;;21.25;81.01
71889;BME280;59762;49.998;14.858;2023-06-10T11:57:00;97339.47;;;21.38;79.81
71889;BME280;59762;49.998;14.858;2023-06-10T11:59:29;97337.00;;;21.36;78.83
71889;BME280;59762;49.998;14.858;2023-06-10T12:01:56;97331.53;;;21.72;76.13
71889;BME280;59762;49.998;14.858;2023-06-10T12:04:22;97327.69;;;22.32;73.41
71889;BME280;59762;49.998;14.858;2023-06-10T12:06:50;97324.53;;;22.06;75.34
71889;BME280;59762;49.998;14.858;2023-06-10T12:09:31;97331.53;;;22.02;77.37
71889;BME280;59762;49.998;14.858;2023-06-10T12:12:03;97325.28;;;22.65;69.84
71889;BME280;59762;49.998;14.858;2023-06-10T12:14:51;97321.16;;;22.22;71.08
71889;BME280;59762;49.998;14.858;2023-06-10T12:19:49;97320.28;;;22.97;69.23
71889;BME280;59762;49.998;14.858;2023-06-10T12:22:14;97309.66;;;23.07;68.75
71889;BME280;59762;49.998;14.858;2023-06-10T12:24:56;97320.31;;;23.08;70.64
71889;BME280;59762;49.998;14.858;2023-06-10T12:27:25;97316.63;;;22.57;70.29
71889;BME280;59762;49.998;14.858;2023-06-10T12:29:52;97318.88;;;22.07;72.29
71889;BME280;59762;49.998;14.858;2023-06-10T12:32:20;97317.09;;;22.01;71.37
71889;BME280;59762;49.998;14.858;2023-06-10T12:35:02;97311.66;;;22.01;72.78
71889;BME280;59762;49.998;14.858;2023-06-10T12:37:29;97318.75;;;22.02;68.47
71889;BME280;59762;49.998;14.858;2023-06-10T12:39:55;97312.94;;;21.87;67.86
71889;BME280;59762;49.998;14.858;2023-06-10T12:42:22;97308.44;;;21.45;68.81
71889;BME280;59762;49.998;14.858;2023-06-10T12:44:53;97302.34;;;21.32;70.16
71889;BME280;59762;49.998;14.858;2023-06-10T12:47:19;97315.13;;;21.79;70.12
71889;BME280;59762;49.998;14.858;2023-06-10T12:49:45;97305.03;;;21.97;64.85
71889;BME280;59762;49.998;14.858;2023-06-10T12:52:11;97304.53;;;22.41;63.54
71889;BME280;59762;49.998;14.858;2023-06-10T12:54:37;97307.41;;;22.58;60.12
71889;BME280;59762;49.998;14.858;2023-06-10T12:57:03;97313.22;;;22.50;59.53
71889;BME280;59762;49.998;14.858;2023-06-10T12:59:29;97301.16;;;22.69;59.17